sensor_id;sensor_type;location;lat;lon;timestamp;P1;durP1;ratioP1;P2;durP2;ratioP2
4963;SDS011;2497;47.410;9.740;2023-03-04T00:00:25;88.67;;;29.30;;
4963;SDS011;2497;47.410;9.740;2023-03-04T00:02:52;90.17;;;32.80;;
4963;SDS011;2497;47.410;9.740;2023-03-04T00:05:21;91.93;;;33.50;;
4963;SDS011;2497;47.410;9.740;2023-03-04T00:07:48;97.73;;;31.90;;
4963;SDS011;2497;47.410;9.740;2023-03-04T00:10:15;97.37;;;32.47;;
4963;SDS011;2497;47.410;9.740;2023-03-04T00:12:43;105.70;;;34.80;;
4963;SDS011;2497;47.410;9.740;2023-03-04T00:15:10;113.57;;;33.00;;
4963;SDS011;2497;47.410;9.740;2023-03-04T00:17:37;106.23;;;35.03;;
4963;SDS011;2497;47.410;9.740;2023-03-04T00:20:05;92.97;;;32.27;;
4963;SDS011;2497;47.410;9.740;2023-03-04T00:22:34;86.17;;;31.10;;
4963;SDS011;2497;47.410;9.740;2023-03-04T00:25:01;96.87;;;32.20;;
4963;SDS011;2497;47.410;9.740;2023-03-04T00:27:29;104.07;;;33.60;;
4963;SDS011;2497;47.410;9.740;2023-03-04T00:29:56;84.80;;;27.73;;
4963;SDS011;2497;47.410;9.740;2023-03-04T00:32:23;81.83;;;27.10;;
4963;SDS011;2497;47.410;9.740;2023-03-04T00:34:50;81.97;;;27.23;;
4963;SDS011;2497;47.410;9.740;2023-03-04T00:37:17;81.47;;;26.80;;
4963;SDS011;2497;47.410;9.740;2023-03-04T00:39:46;89.40;;;25.80;;
4963;SDS011;2497;47.410;9.740;2023-03-04T00:42:13;93.10;;;29.37;;
4963;SDS011;2497;47.410;9.740;2023-03-04T00:44:40;97.63;;;30.50;;
4963;SDS011;2497;47.410;9.740;2023-03-04T00:47:07;81.87;;;26.97;;
4963;SDS011;2497;47.410;9.740;2023-03-04T00:49:35;97.50;;;30.90;;
4963;SDS011;2497;47.410;9.740;2023-03-04T00:52:03;81.10;;;25.77;;
4963;SDS011;2497;47.410;9.740;2023-03-04T00:54:30;80.30;;;25.63;;
4963;SDS011;2497;47.410;9.740;2023-03-04T00:56:58;70.53;;;23.63;;
4963;SDS011;2497;47.410;9.740;2023-03-04T00:59:26;69.37;;;22.30;;
4963;SDS011;2497;47.410;9.740;2023-03-04T01:01:53;57.37;;;21.87;;
4963;SDS011;2497;47.410;9.740;2023-03-04T01:04:20;77.20;;;23.23;;
4963;SDS011;2497;47.410;9.740;2023-03-04T01:06:47;58.20;;;21.17;;
4963;SDS011;2497;47.410;9.740;2023-03-04T01:09:15;55.60;;;20.90;;
4963;SDS011;2497;47.410;9.740;2023-03-04T01:11:42;57.37;;;19.80;;
4963;SDS011;2497;47.410;9.740;2023-03-04T01:14:11;49.63;;;19.17;;
4963;SDS011;2497;47.410;9.740;2023-03-04T01:16:38;69.33;;;20.57;;
4963;SDS011;2497;47.410;9.740;2023-03-04T01:19:05;67.17;;;21.90;;
4963;SDS011;2497;47.410;9.740;2023-03-04T01:21:32;51.20;;;18.70;;
4963;SDS011;2497;47.410;9.740;2023-03-04T01:23:59;60.43;;;20.20;;
4963;SDS011;2497;47.410;9.740;2023-03-04T01:26:29;71.90;;;21.80;;
4963;SDS011;2497;47.410;9.740;2023-03-04T01:28:56;67.97;;;25.10;;
4963;SDS011;2497;47.410;9.740;2023-03-04T01:31:25;80.23;;;25.20;;
4963;SDS011;2497;47.410;9.740;2023-03-04T01:33:52;64.93;;;20.83;;
4963;SDS011;2497;47.410;9.740;2023-03-04T01:36:19;60.57;;;20.63;;
4963;SDS011;2497;47.410;9.740;2023-03-04T01:38:46;61.97;;;19.37;;
4963;SDS011;2497;47.410;9.740;2023-03-04T01:41:14;68.47;;;21.50;;
4963;SDS011;2497;47.410;9.740;2023-03-04T01:43:47;72.47;;;22.67;;
4963;SDS011;2497;47.410;9.740;2023-03-04T01:46:15;65.90;;;24.10;;
4963;SDS011;2497;47.410;9.740;2023-03-04T01:48:44;66.60;;;21.50;;
4963;SDS011;2497;47.410;9.740;2023-03-04T01:51:11;62.57;;;21.43;;
4963;SDS011;2497;47.410;9.740;2023-03-04T01:53:40;60.33;;;19.53;;
4963;SDS011;2497;47.410;9.740;2023-03-04T01:56:12;49.67;;;18.47;;
4963;SDS011;2497;47.410;9.740;2023-03-04T01:58:41;61.80;;;22.57;;
4963;SDS011;2497;47.410;9.740;2023-03-04T02:01:09;51.70;;;17.57;;
4963;SDS011;2497;47.410;9.740;2023-03-04T02:03:37;53.63;;;18.80;;
4963;SDS011;2497;47.410;9.740;2023-03-04T02:06:06;48.87;;;15.87;;
4963;SDS011;2497;47.410;9.740;2023-03-04T02:08:33;40.30;;;16.63;;
4963;SDS011;2497;47.410;9.740;2023-03-04T02:11:00;50.43;;;17.37;;
4963;SDS011;2497;47.410;9.740;2023-03-04T02:13:27;43.83;;;15.40;;
4963;SDS011;2497;47.410;9.740;2023-03-04T02:15:55;36.47;;;13.97;;
4963;SDS011;2497;47.410;9.740;2023-03-04T02:18:22;47.20;;;17.00;;
4963;SDS011;2497;47.410;9.740;2023-03-04T02:20:53;50.03;;;16.03;;
4963;SDS011;2497;47.410;9.740;2023-03-04T02:23:31;41.57;;;13.80;;
4963;SDS011;2497;47.410;9.740;2023-03-04T02:26:14;50.63;;;15.97;;
4963;SDS011;2497;47.410;9.740;2023-03-04T02:28:43;31.10;;;14.37;;
4963;SDS011;2497;47.410;9.740;2023-03-04T02:31:15;40.20;;;13.50;;
4963;SDS011;2497;47.410;9.740;2023-03-04T02:33:48;39.80;;;14.43;;
4963;SDS011;2497;47.410;9.740;2023-03-04T02:36:16;47.23;;;15.47;;
4963;SDS011;2497;47.410;9.740;2023-03-04T02:38:43;42.70;;;16.60;;
4963;SDS011;2497;47.410;9.740;2023-03-04T02:41:11;51.13;;;18.20;;
4963;SDS011;2497;47.410;9.740;2023-03-04T02:43:43;46.47;;;15.80;;
4963;SDS011;2497;47.410;9.740;2023-03-04T02:46:11;46.80;;;16.43;;
4963;SDS011;2497;47.410;9.740;2023-03-04T02:48:38;42.83;;;16.43;;
4963;SDS011;2497;47.410;9.740;2023-03-04T02:51:06;50.60;;;16.87;;
4963;SDS011;2497;47.410;9.740;2023-03-04T02:53:33;48.07;;;16.67;;
4963;SDS011;2497;47.410;9.740;2023-03-04T02:56:00;48.97;;;16.37;;
4963;SDS011;2497;47.410;9.740;2023-03-04T02:58:29;51.50;;;16.30;;
4963;SDS011;2497;47.410;9.740;2023-03-04T03:00:56;46.23;;;16.03;;
4963;SDS011;2497;47.410;9.740;2023-03-04T03:03:23;41.27;;;15.00;;
4963;SDS011;2497;47.410;9.740;2023-03-04T03:05:50;43.87;;;15.67;;
4963;SDS011;2497;47.410;9.740;2023-03-04T03:08:19;47.97;;;17.10;;
4963;SDS011;2497;47.410;9.740;2023-03-04T03:10:46;61.50;;;19.47;;
4963;SDS011;2497;47.410;9.740;2023-03-04T03:13:13;73.00;;;22.97;;
4963;SDS011;2497;47.410;9.740;2023-03-04T03:15:42;80.87;;;29.50;;
4963;SDS011;2497;47.410;9.740;2023-03-04T03:18:09;72.33;;;26.27;;
4963;SDS011;2497;47.410;9.740;2023-03-04T03:20:36;94.20;;;27.70;;
4963;SDS011;2497;47.410;9.740;2023-03-04T03:23:04;91.93;;;27.37;;
4963;SDS011;2497;47.410;9.740;2023-03-04T03:25:31;74.73;;;26.73;;
4963;SDS011;2497;47.410;9.740;2023-03-04T03:27:58;94.83;;;28.57;;
4963;SDS011;2497;47.410;9.740;2023-03-04T03:30:25;87.17;;;26.53;;
4963;SDS011;2497;47.410;9.740;2023-03-04T03:32:53;80.03;;;27.73;;
4963;SDS011;2497;47.410;9.740;2023-03-04T03:35:20;82.97;;;26.43;;
4963;SDS011;2497;47.410;9.740;2023-03-04T03:37:48;84.20;;;27.70;;
4963;SDS011;2497;47.410;9.740;2023-03-04T03:40:15;99.40;;;28.30;;
4963;SDS011;2497;47.410;9.740;2023-03-04T03:42:42;104.90;;;28.37;;
4963;SDS011;2497;47.410;9.740;2023-03-04T03:45:09;80.63;;;28.33;;
4963;SDS011;2497;47.410;9.740;2023-03-04T03:47:37;72.23;;;27.97;;
4963;SDS011;2497;47.410;9.740;2023-03-04T03:50:06;77.07;;;25.65;;
4963;SDS011;2497;47.410;9.740;2023-03-04T03:52:34;81.37;;;23.17;;
4963;SDS011;2497;47.410;9.740;2023-03-04T03:55:01;65.63;;;25.30;;
4963;SDS011;2497;47.410;9.740;2023-03-04T03:57:28;74.30;;;24.92;;
4963;SDS011;2497;47.410;9.740;2023-03-04T03:59:56;80.53;;;25.98;;
4963;SDS011;2497;47.410;9.740;2023-03-04T04:02:23;78.70;;;27.07;;
4963;SDS011;2497;47.410;9.740;2023-03-04T04:04:50;82.88;;;26.38;;
4963;SDS011;2497;47.410;9.740;2023-03-04T04:07:19;92.80;;;27.35;;
4963;SDS011;2497;47.410;9.740;2023-03-04T04:09:46;84.28;;;26.85;;
4963;SDS011;2497;47.410;9.740;2023-03-04T04:12:14;66.35;;;23.38;;
4963;SDS011;2497;47.410;9.740;2023-03-04T04:14:42;62.20;;;22.98;;
4963;SDS011;2497;47.410;9.740;2023-03-04T04:17:09;74.90;;;27.83;;
4963;SDS011;2497;47.410;9.740;2023-03-04T04:19:38;95.95;;;28.75;;
4963;SDS011;2497;47.410;9.740;2023-03-04T04:22:05;72.60;;;25.55;;
4963;SDS011;2497;47.410;9.740;2023-03-04T04:24:34;81.90;;;26.17;;
4963;SDS011;2497;47.410;9.740;2023-03-04T04:27:02;82.20;;;27.55;;
4963;SDS011;2497;47.410;9.740;2023-03-04T04:29:29;93.10;;;26.45;;
4963;SDS011;2497;47.410;9.740;2023-03-04T04:31:56;85.22;;;25.50;;
4963;SDS011;2497;47.410;9.740;2023-03-04T04:34:24;69.65;;;23.42;;
4963;SDS011;2497;47.410;9.740;2023-03-04T04:36:51;63.58;;;24.17;;
4963;SDS011;2497;47.410;9.740;2023-03-04T04:39:18;60.42;;;21.75;;
4963;SDS011;2497;47.410;9.740;2023-03-04T04:41:47;75.15;;;21.40;;
4963;SDS011;2497;47.410;9.740;2023-03-04T04:44:15;55.38;;;19.50;;
4963;SDS011;2497;47.410;9.740;2023-03-04T04:46:42;64.72;;;22.02;;
4963;SDS011;2497;47.410;9.740;2023-03-04T04:49:09;80.63;;;21.23;;
4963;SDS011;2497;47.410;9.740;2023-03-04T04:51:37;60.10;;;20.08;;
4963;SDS011;2497;47.410;9.740;2023-03-04T04:54:05;69.97;;;22.27;;
4963;SDS011;2497;47.410;9.740;2023-03-04T04:56:32;53.00;;;20.20;;
4963;SDS011;2497;47.410;9.740;2023-03-04T04:59:02;64.95;;;21.30;;
4963;SDS011;2497;47.410;9.740;2023-03-04T05:01:31;67.00;;;20.50;;
4963;SDS011;2497;47.410;9.740;2023-03-04T05:03:58;62.42;;;21.15;;
4963;SDS011;2497;47.410;9.740;2023-03-04T05:06:26;68.07;;;21.17;;
4963;SDS011;2497;47.410;9.740;2023-03-04T05:08:53;70.82;;;23.00;;
4963;SDS011;2497;47.410;9.740;2023-03-04T05:11:20;66.25;;;22.50;;
4963;SDS011;2497;47.410;9.740;2023-03-04T05:13:48;69.25;;;22.83;;
4963;SDS011;2497;47.410;9.740;2023-03-04T05:16:17;59.38;;;22.02;;
4963;SDS011;2497;47.410;9.740;2023-03-04T05:18:44;69.68;;;23.77;;
4963;SDS011;2497;47.410;9.740;2023-03-04T05:21:12;73.93;;;22.20;;
4963;SDS011;2497;47.410;9.740;2023-03-04T05:23:39;72.30;;;24.33;;
4963;SDS011;2497;47.410;9.740;2023-03-04T05:26:08;88.57;;;26.83;;
4963;SDS011;2497;47.410;9.740;2023-03-04T05:28:38;85.80;;;25.83;;
4963;SDS011;2497;47.410;9.740;2023-03-04T05:31:05;80.55;;;25.42;;
4963;SDS011;2497;47.410;9.740;2023-03-04T05:33:34;91.97;;;26.17;;
4963;SDS011;2497;47.410;9.740;2023-03-04T05:36:03;79.88;;;24.02;;
4963;SDS011;2497;47.410;9.740;2023-03-04T05:38:31;76.05;;;23.90;;
4963;SDS011;2497;47.410;9.740;2023-03-04T05:40:59;66.53;;;24.10;;
4963;SDS011;2497;47.410;9.740;2023-03-04T05:43:27;61.90;;;22.75;;
4963;SDS011;2497;47.410;9.740;2023-03-04T05:45:55;79.05;;;24.05;;
4963;SDS011;2497;47.410;9.740;2023-03-04T05:48:23;41.85;;;14.68;;
4963;SDS011;2497;47.410;9.740;2023-03-04T05:50:54;52.72;;;15.90;;
4963;SDS011;2497;47.410;9.740;2023-03-04T05:53:24;40.22;;;14.93;;
4963;SDS011;2497;47.410;9.740;2023-03-04T05:55:52;42.70;;;14.98;;
4963;SDS011;2497;47.410;9.740;2023-03-04T05:58:19;38.45;;;14.43;;
4963;SDS011;2497;47.410;9.740;2023-03-04T06:00:47;47.80;;;17.10;;
4963;SDS011;2497;47.410;9.740;2023-03-04T06:03:14;43.67;;;17.30;;
4963;SDS011;2497;47.410;9.740;2023-03-04T06:05:43;50.20;;;15.48;;
4963;SDS011;2497;47.410;9.740;2023-03-04T06:08:11;40.72;;;15.32;;
4963;SDS011;2497;47.410;9.740;2023-03-04T06:10:39;55.88;;;16.73;;
4963;SDS011;2497;47.410;9.740;2023-03-04T06:13:07;38.17;;;15.35;;
4963;SDS011;2497;47.410;9.740;2023-03-04T06:15:35;55.47;;;17.38;;
4963;SDS011;2497;47.410;9.740;2023-03-04T06:18:02;47.05;;;16.58;;
4963;SDS011;2497;47.410;9.740;2023-03-04T06:20:30;48.10;;;16.90;;
4963;SDS011;2497;47.410;9.740;2023-03-04T06:22:57;55.03;;;18.40;;
4963;SDS011;2497;47.410;9.740;2023-03-04T06:25:25;56.05;;;19.00;;
4963;SDS011;2497;47.410;9.740;2023-03-04T06:27:53;55.92;;;19.63;;
4963;SDS011;2497;47.410;9.740;2023-03-04T06:30:20;56.67;;;21.20;;
4963;SDS011;2497;47.410;9.740;2023-03-04T06:32:48;71.28;;;21.58;;
4963;SDS011;2497;47.410;9.740;2023-03-04T06:35:15;57.30;;;20.73;;
4963;SDS011;2497;47.410;9.740;2023-03-04T06:37:43;53.05;;;19.05;;
4963;SDS011;2497;47.410;9.740;2023-03-04T06:40:10;56.50;;;18.63;;
4963;SDS011;2497;47.410;9.740;2023-03-04T06:42:39;61.67;;;19.38;;
4963;SDS011;2497;47.410;9.740;2023-03-04T06:45:08;53.22;;;20.45;;
4963;SDS011;2497;47.410;9.740;2023-03-04T06:47:37;58.50;;;22.25;;
4963;SDS011;2497;47.410;9.740;2023-03-04T06:50:04;59.20;;;21.45;;
4963;SDS011;2497;47.410;9.740;2023-03-04T06:52:32;67.88;;;23.70;;
4963;SDS011;2497;47.410;9.740;2023-03-04T06:54:59;59.67;;;20.70;;
4963;SDS011;2497;47.410;9.740;2023-03-04T06:57:26;81.38;;;25.65;;
4963;SDS011;2497;47.410;9.740;2023-03-04T06:59:55;95.15;;;27.10;;
4963;SDS011;2497;47.410;9.740;2023-03-04T07:02:22;96.95;;;30.15;;
4963;SDS011;2497;47.410;9.740;2023-03-04T07:04:49;99.10;;;32.17;;
4963;SDS011;2497;47.410;9.740;2023-03-04T07:07:17;99.63;;;31.67;;
4963;SDS011;2497;47.410;9.740;2023-03-04T07:09:44;95.45;;;31.20;;
4963;SDS011;2497;47.410;9.740;2023-03-04T07:12:11;146.73;;;29.70;;
4963;SDS011;2497;47.410;9.740;2023-03-04T07:14:38;131.80;;;28.33;;
4963;SDS011;2497;47.410;9.740;2023-03-04T07:17:07;154.63;;;32.13;;
4963;SDS011;2497;47.410;9.740;2023-03-04T07:19:34;102.97;;;34.22;;
4963;SDS011;2497;47.410;9.740;2023-03-04T07:22:02;125.90;;;30.77;;
4963;SDS011;2497;47.410;9.740;2023-03-04T07:24:29;113.53;;;29.03;;
4963;SDS011;2497;47.410;9.740;2023-03-04T07:26:56;105.03;;;31.60;;
4963;SDS011;2497;47.410;9.740;2023-03-04T07:29:23;88.90;;;27.87;;
4963;SDS011;2497;47.410;9.740;2023-03-04T07:31:50;85.75;;;30.25;;
4963;SDS011;2497;47.410;9.740;2023-03-04T07:34:22;92.57;;;28.02;;
4963;SDS011;2497;47.410;9.740;2023-03-04T07:36:49;81.22;;;25.98;;
4963;SDS011;2497;47.410;9.740;2023-03-04T07:39:16;74.33;;;26.97;;
4963;SDS011;2497;47.410;9.740;2023-03-04T07:41:44;80.05;;;27.92;;
4963;SDS011;2497;47.410;9.740;2023-03-04T07:44:17;76.93;;;26.85;;
4963;SDS011;2497;47.410;9.740;2023-03-04T07:46:45;83.97;;;27.40;;
4963;SDS011;2497;47.410;9.740;2023-03-04T07:49:12;83.07;;;28.05;;
4963;SDS011;2497;47.410;9.740;2023-03-04T07:51:41;83.95;;;27.35;;
4963;SDS011;2497;47.410;9.740;2023-03-04T07:54:08;92.23;;;29.23;;
4963;SDS011;2497;47.410;9.740;2023-03-04T07:56:36;76.50;;;28.67;;
4963;SDS011;2497;47.410;9.740;2023-03-04T07:59:03;77.60;;;27.90;;
4963;SDS011;2497;47.410;9.740;2023-03-04T08:01:31;107.97;;;32.17;;
4963;SDS011;2497;47.410;9.740;2023-03-04T08:04:00;91.67;;;29.97;;
4963;SDS011;2497;47.410;9.740;2023-03-04T08:06:28;98.23;;;30.47;;
4963;SDS011;2497;47.410;9.740;2023-03-04T08:08:57;83.77;;;31.40;;
4963;SDS011;2497;47.410;9.740;2023-03-04T08:11:25;83.80;;;29.03;;
4963;SDS011;2497;47.410;9.740;2023-03-04T08:13:53;77.57;;;28.30;;
4963;SDS011;2497;47.410;9.740;2023-03-04T08:16:22;87.53;;;27.10;;
4963;SDS011;2497;47.410;9.740;2023-03-04T08:18:51;74.23;;;27.10;;
4963;SDS011;2497;47.410;9.740;2023-03-04T08:21:20;75.20;;;25.77;;
4963;SDS011;2497;47.410;9.740;2023-03-04T08:23:49;77.40;;;27.30;;
4963;SDS011;2497;47.410;9.740;2023-03-04T08:26:19;69.43;;;28.43;;
4963;SDS011;2497;47.410;9.740;2023-03-04T08:28:47;86.97;;;29.37;;
4963;SDS011;2497;47.410;9.740;2023-03-04T08:31:14;85.07;;;31.50;;
4963;SDS011;2497;47.410;9.740;2023-03-04T08:33:45;70.77;;;28.60;;
4963;SDS011;2497;47.410;9.740;2023-03-04T08:36:20;98.67;;;32.00;;
4963;SDS011;2497;47.410;9.740;2023-03-04T08:38:50;88.77;;;28.80;;
4963;SDS011;2497;47.410;9.740;2023-03-04T08:41:18;82.63;;;30.30;;
4963;SDS011;2497;47.410;9.740;2023-03-04T08:43:47;84.90;;;28.10;;
4963;SDS011;2497;47.410;9.740;2023-03-04T08:46:15;81.93;;;27.57;;
4963;SDS011;2497;47.410;9.740;2023-03-04T08:48:43;74.37;;;27.00;;
4963;SDS011;2497;47.410;9.740;2023-03-04T08:51:11;81.47;;;29.27;;
4963;SDS011;2497;47.410;9.740;2023-03-04T08:53:39;75.77;;;28.30;;
4963;SDS011;2497;47.410;9.740;2023-03-04T08:56:07;78.10;;;28.00;;
4963;SDS011;2497;47.410;9.740;2023-03-04T08:58:36;82.90;;;29.10;;
4963;SDS011;2497;47.410;9.740;2023-03-04T09:01:04;80.03;;;27.53;;
4963;SDS011;2497;47.410;9.740;2023-03-04T09:03:33;91.07;;;29.47;;
4963;SDS011;2497;47.410;9.740;2023-03-04T09:06:01;93.67;;;28.60;;
4963;SDS011;2497;47.410;9.740;2023-03-04T09:08:29;89.37;;;29.00;;
4963;SDS011;2497;47.410;9.740;2023-03-04T09:10:59;70.17;;;28.43;;
4963;SDS011;2497;47.410;9.740;2023-03-04T09:13:27;77.23;;;26.80;;
4963;SDS011;2497;47.410;9.740;2023-03-04T09:15:57;91.17;;;27.80;;
4963;SDS011;2497;47.410;9.740;2023-03-04T09:18:24;86.50;;;28.97;;
4963;SDS011;2497;47.410;9.740;2023-03-04T09:20:52;74.47;;;26.90;;
4963;SDS011;2497;47.410;9.740;2023-03-04T09:23:22;70.73;;;28.13;;
4963;SDS011;2497;47.410;9.740;2023-03-04T09:25:52;70.57;;;26.97;;
4963;SDS011;2497;47.410;9.740;2023-03-04T09:28:19;79.27;;;27.50;;
4963;SDS011;2497;47.410;9.740;2023-03-04T09:30:49;76.20;;;27.00;;
4963;SDS011;2497;47.410;9.740;2023-03-04T09:33:17;64.33;;;26.07;;
4963;SDS011;2497;47.410;9.740;2023-03-04T09:35:44;69.77;;;27.17;;
4963;SDS011;2497;47.410;9.740;2023-03-04T09:38:12;74.73;;;26.93;;
4963;SDS011;2497;47.410;9.740;2023-03-04T09:40:40;65.97;;;23.80;;
4963;SDS011;2497;47.410;9.740;2023-03-04T09:43:11;76.77;;;27.17;;
4963;SDS011;2497;47.410;9.740;2023-03-04T09:45:46;80.83;;;27.53;;
4963;SDS011;2497;47.410;9.740;2023-03-04T09:48:19;79.87;;;25.67;;
4963;SDS011;2497;47.410;9.740;2023-03-04T09:50:52;77.43;;;27.20;;
4963;SDS011;2497;47.410;9.740;2023-03-04T09:53:31;79.03;;;25.70;;
4963;SDS011;2497;47.410;9.740;2023-03-04T09:56:04;80.00;;;25.93;;
4963;SDS011;2497;47.410;9.740;2023-03-04T09:58:36;81.23;;;24.60;;
4963;SDS011;2497;47.410;9.740;2023-03-04T10:01:11;71.00;;;28.10;;
4963;SDS011;2497;47.410;9.740;2023-03-04T10:03:48;76.77;;;25.30;;
4963;SDS011;2497;47.410;9.740;2023-03-04T10:06:20;72.73;;;24.33;;
4963;SDS011;2497;47.410;9.740;2023-03-04T10:08:52;80.43;;;27.77;;
4963;SDS011;2497;47.410;9.740;2023-03-04T10:11:24;77.13;;;29.23;;
4963;SDS011;2497;47.410;9.740;2023-03-04T10:14:07;88.80;;;29.83;;
4963;SDS011;2497;47.410;9.740;2023-03-04T10:16:58;78.27;;;27.13;;
4963;SDS011;2497;47.410;9.740;2023-03-04T10:19:35;80.40;;;26.73;;
4963;SDS011;2497;47.410;9.740;2023-03-04T10:22:15;85.00;;;28.53;;
4963;SDS011;2497;47.410;9.740;2023-03-04T10:24:48;94.63;;;28.80;;
4963;SDS011;2497;47.410;9.740;2023-03-04T10:27:16;73.53;;;26.83;;
4963;SDS011;2497;47.410;9.740;2023-03-04T10:29:45;82.03;;;29.10;;
4963;SDS011;2497;47.410;9.740;2023-03-04T10:32:12;73.27;;;28.33;;
4963;SDS011;2497;47.410;9.740;2023-03-04T10:34:43;99.93;;;30.60;;
4963;SDS011;2497;47.410;9.740;2023-03-04T10:37:11;76.53;;;29.50;;
4963;SDS011;2497;47.410;9.740;2023-03-04T10:39:38;86.80;;;29.33;;
4963;SDS011;2497;47.410;9.740;2023-03-04T10:42:21;96.10;;;31.73;;
4963;SDS011;2497;47.410;9.740;2023-03-04T10:44:53;85.10;;;29.87;;
4963;SDS011;2497;47.410;9.740;2023-03-04T10:47:22;84.67;;;30.90;;
4963;SDS011;2497;47.410;9.740;2023-03-04T10:49:52;73.40;;;28.70;;
4963;SDS011;2497;47.410;9.740;2023-03-04T10:52:29;87.90;;;29.17;;
4963;SDS011;2497;47.410;9.740;2023-03-04T10:54:58;86.13;;;31.10;;
4963;SDS011;2497;47.410;9.740;2023-03-04T10:57:31;85.57;;;33.20;;
4963;SDS011;2497;47.410;9.740;2023-03-04T11:00:01;92.23;;;30.60;;
4963;SDS011;2497;47.410;9.740;2023-03-04T11:02:45;93.27;;;30.73;;
4963;SDS011;2497;47.410;9.740;2023-03-04T11:05:19;93.07;;;32.90;;
4963;SDS011;2497;47.410;9.740;2023-03-04T11:07:48;88.57;;;30.70;;
4963;SDS011;2497;47.410;9.740;2023-03-04T11:10:17;87.87;;;33.50;;
4963;SDS011;2497;47.410;9.740;2023-03-04T11:12:49;94.67;;;31.97;;
4963;SDS011;2497;47.410;9.740;2023-03-04T11:15:21;84.83;;;29.67;;
4963;SDS011;2497;47.410;9.740;2023-03-04T11:17:53;85.90;;;32.23;;
4963;SDS011;2497;47.410;9.740;2023-03-04T11:20:29;89.47;;;31.70;;
4963;SDS011;2497;47.410;9.740;2023-03-04T11:23:00;99.97;;;34.00;;
4963;SDS011;2497;47.410;9.740;2023-03-04T11:25:32;76.43;;;28.73;;
4963;SDS011;2497;47.410;9.740;2023-03-04T11:28:01;80.83;;;29.90;;
4963;SDS011;2497;47.410;9.740;2023-03-04T11:30:33;80.07;;;29.47;;
4963;SDS011;2497;47.410;9.740;2023-03-04T11:33:07;79.27;;;29.77;;
4963;SDS011;2497;47.410;9.740;2023-03-04T11:35:47;72.43;;;26.83;;
4963;SDS011;2497;47.410;9.740;2023-03-04T11:38:23;76.83;;;24.73;;
4963;SDS011;2497;47.410;9.740;2023-03-04T11:40:58;78.90;;;26.60;;
4963;SDS011;2497;47.410;9.740;2023-03-04T11:43:31;66.73;;;27.03;;
4963;SDS011;2497;47.410;9.740;2023-03-04T11:49:14;73.63;;;25.73;;
4963;SDS011;2497;47.410;9.740;2023-03-04T11:51:54;61.50;;;23.67;;
4963;SDS011;2497;47.410;9.740;2023-03-04T11:54:28;72.50;;;26.37;;
4963;SDS011;2497;47.410;9.740;2023-03-04T11:57:01;67.87;;;24.80;;
4963;SDS011;2497;47.410;9.740;2023-03-04T11:59:49;64.40;;;25.90;;
4963;SDS011;2497;47.410;9.740;2023-03-04T12:02:22;61.80;;;24.67;;
4963;SDS011;2497;47.410;9.740;2023-03-04T12:05:04;60.30;;;24.53;;
4963;SDS011;2497;47.410;9.740;2023-03-04T12:10:52;62.47;;;26.70;;
4963;SDS011;2497;47.410;9.740;2023-03-04T12:13:32;61.43;;;24.63;;
4963;SDS011;2497;47.410;9.740;2023-03-04T12:16:33;61.50;;;24.27;;
4963;SDS011;2497;47.410;9.740;2023-03-04T12:19:23;68.07;;;24.67;;
4963;SDS011;2497;47.410;9.740;2023-03-04T12:22:02;72.60;;;26.17;;
4963;SDS011;2497;47.410;9.740;2023-03-04T12:24:48;67.90;;;23.93;;
4963;SDS011;2497;47.410;9.740;2023-03-04T12:27:33;57.33;;;23.87;;
4963;SDS011;2497;47.410;9.740;2023-03-04T12:30:15;55.40;;;23.87;;
4963;SDS011;2497;47.410;9.740;2023-03-04T12:33:02;64.53;;;23.27;;
4963;SDS011;2497;47.410;9.740;2023-03-04T12:35:41;57.90;;;23.50;;
4963;SDS011;2497;47.410;9.740;2023-03-04T12:38:22;54.03;;;22.90;;
4963;SDS011;2497;47.410;9.740;2023-03-04T12:41:05;58.03;;;23.43;;
4963;SDS011;2497;47.410;9.740;2023-03-04T12:43:49;56.87;;;22.77;;
4963;SDS011;2497;47.410;9.740;2023-03-04T12:46:23;71.33;;;26.00;;
4963;SDS011;2497;47.410;9.740;2023-03-04T12:49:11;64.63;;;24.30;;
4963;SDS011;2497;47.410;9.740;2023-03-04T12:51:49;60.80;;;24.17;;
4963;SDS011;2497;47.410;9.740;2023-03-04T12:54:27;64.73;;;24.23;;
4963;SDS011;2497;47.410;9.740;2023-03-04T12:56:59;57.57;;;23.47;;
4963;SDS011;2497;47.410;9.740;2023-03-04T12:59:33;61.90;;;24.90;;
4963;SDS011;2497;47.410;9.740;2023-03-04T13:05:16;68.40;;;24.73;;
4963;SDS011;2497;47.410;9.740;2023-03-04T13:07:53;55.73;;;21.00;;
4963;SDS011;2497;47.410;9.740;2023-03-04T13:10:26;57.97;;;23.10;;
4963;SDS011;2497;47.410;9.740;2023-03-04T13:12:58;54.80;;;23.20;;
4963;SDS011;2497;47.410;9.740;2023-03-04T13:15:34;70.00;;;26.53;;
4963;SDS011;2497;47.410;9.740;2023-03-04T13:18:03;58.37;;;23.27;;
4963;SDS011;2497;47.410;9.740;2023-03-04T13:20:45;60.80;;;23.97;;
4963;SDS011;2497;47.410;9.740;2023-03-04T13:23:30;58.57;;;22.90;;
4963;SDS011;2497;47.410;9.740;2023-03-04T13:26:07;53.90;;;23.03;;
4963;SDS011;2497;47.410;9.740;2023-03-04T13:28:47;58.73;;;22.50;;
4963;SDS011;2497;47.410;9.740;2023-03-04T13:31:23;64.67;;;24.10;;
4963;SDS011;2497;47.410;9.740;2023-03-04T13:37:02;58.53;;;24.10;;
4963;SDS011;2497;47.410;9.740;2023-03-04T13:42:54;58.63;;;26.03;;
4963;SDS011;2497;47.410;9.740;2023-03-04T13:45:43;59.93;;;24.03;;
4963;SDS011;2497;47.410;9.740;2023-03-04T13:48:22;68.27;;;26.47;;
4963;SDS011;2497;47.410;9.740;2023-03-04T13:50:51;61.43;;;25.70;;
4963;SDS011;2497;47.410;9.740;2023-03-04T13:56:28;66.03;;;25.63;;
4963;SDS011;2497;47.410;9.740;2023-03-04T13:59:01;50.40;;;22.97;;
4963;SDS011;2497;47.410;9.740;2023-03-04T14:01:53;62.70;;;24.97;;
4963;SDS011;2497;47.410;9.740;2023-03-04T14:04:30;83.90;;;26.90;;
4963;SDS011;2497;47.410;9.740;2023-03-04T14:07:00;67.07;;;24.07;;
4963;SDS011;2497;47.410;9.740;2023-03-04T14:09:41;80.90;;;29.90;;
4963;SDS011;2497;47.410;9.740;2023-03-04T14:12:20;76.33;;;28.90;;
4963;SDS011;2497;47.410;9.740;2023-03-04T14:14:49;78.67;;;30.00;;
4963;SDS011;2497;47.410;9.740;2023-03-04T14:17:21;69.40;;;28.97;;
4963;SDS011;2497;47.410;9.740;2023-03-04T14:19:52;66.90;;;27.97;;
4963;SDS011;2497;47.410;9.740;2023-03-04T14:22:20;73.33;;;30.57;;
4963;SDS011;2497;47.410;9.740;2023-03-04T14:24:56;70.23;;;28.53;;
4963;SDS011;2497;47.410;9.740;2023-03-04T14:27:24;75.13;;;30.17;;
4963;SDS011;2497;47.410;9.740;2023-03-04T14:29:55;75.20;;;30.40;;
4963;SDS011;2497;47.410;9.740;2023-03-04T14:32:24;74.73;;;32.30;;
4963;SDS011;2497;47.410;9.740;2023-03-04T14:34:53;72.90;;;32.93;;
4963;SDS011;2497;47.410;9.740;2023-03-04T14:37:23;69.33;;;28.20;;
4963;SDS011;2497;47.410;9.740;2023-03-04T14:39:53;71.47;;;27.87;;
4963;SDS011;2497;47.410;9.740;2023-03-04T14:42:22;73.87;;;28.23;;
4963;SDS011;2497;47.410;9.740;2023-03-04T14:44:55;77.37;;;30.33;;
4963;SDS011;2497;47.410;9.740;2023-03-04T14:47:28;72.77;;;28.53;;
4963;SDS011;2497;47.410;9.740;2023-03-04T14:50:03;78.60;;;30.60;;
4963;SDS011;2497;47.410;9.740;2023-03-04T14:52:35;71.37;;;29.73;;
4963;SDS011;2497;47.410;9.740;2023-03-04T14:55:18;78.43;;;29.60;;
4963;SDS011;2497;47.410;9.740;2023-03-04T14:57:48;66.77;;;30.00;;
4963;SDS011;2497;47.410;9.740;2023-03-04T15:00:28;78.27;;;29.90;;
4963;SDS011;2497;47.410;9.740;2023-03-04T15:02:59;62.70;;;28.03;;
4963;SDS011;2497;47.410;9.740;2023-03-04T15:05:28;69.30;;;29.77;;
4963;SDS011;2497;47.410;9.740;2023-03-04T15:07:57;64.00;;;29.23;;
4963;SDS011;2497;47.410;9.740;2023-03-04T15:10:27;70.17;;;29.77;;
4963;SDS011;2497;47.410;9.740;2023-03-04T15:12:57;69.63;;;28.63;;
4963;SDS011;2497;47.410;9.740;2023-03-04T15:15:40;60.80;;;26.97;;
4963;SDS011;2497;47.410;9.740;2023-03-04T15:18:15;91.37;;;37.13;;
4963;SDS011;2497;47.410;9.740;2023-03-04T15:20:54;79.07;;;28.00;;
4963;SDS011;2497;47.410;9.740;2023-03-04T15:23:23;77.93;;;30.17;;
4963;SDS011;2497;47.410;9.740;2023-03-04T15:25:52;76.00;;;29.80;;